Poynor, Texas
Current Conditions -  °F | °C
As of 12:55 PM on Tuesday 27 Jan 2015 (Local Time) from KF44 Reporting Station
Clear Clear  
Wind Chill: 73°   Ceiling: Unl
Heat Index: 73°   Visibility: 10mi
Dew Point: 37°   Wind: 0mph
Humidity: 27%   Direction: NA
Pressure: 30.13"   Gusts: NA
Location:  32.07°N, 95.6°W
Report Text: KF44 271855Z AUTO 00000KT 10SM CLR 23/03 A3013 RMK AO2
Loading
Personal Weather Stations






























Interactive Weather Map New forecast layout! Learn more

10-Day Weather Forecast

Advertisements
Track Severe Weather on mobile